Pagina principale
METAR-TAF:

METAR-TAF

Aeroporti :

Aeroporto di Berna

Berna, Svizzera

latitudine: 46-55N, longitudine: 007-30E, altezza: 505 m

Osservazione

Il bollettino è stato emesso 43 minuti fa, alle 12:50 UTC
Vento 4 kt da sud/sud-est
Temperature 4°C
Umidità 87%
Pressione 1009 hPa
Visibilità: 6000 m
Cielo coperto ad un'altezza di 800 ft

METAR: LSZB 211250Z 16004KT 6000 OVC008 04/02 Q1009 NOSIG

Ora: 14:33 (13:33 UTC)

Previsione

Il bollettino è stato emesso 2 ore e 8 minuti fa, alle 11:25 UTC
Previsione valida dal 21 alle 12 UTC al 21 alle 21 UTC
Vento 3 kt da direzioni variabili
Visibilità: 6000 m
Cielo coperto ad un'altezza di 800 ft
Evoluzione graduale
dal 21 alle 12 UTC al 21 alle 15 UTC
Nuvoloso ad un'altezza di 1200 ft
Probabilità 40%
dal 21 alle 14 UTC al 21 alle 17 UTC
Nubi sparse ad un'altezza di 1600 ft

TAF: LSZB 211125Z 2112/2121 VRB03KT 6000 OVC008 BECMG 2112/2115 BKN012 PROB40 2114/2117 SCT016

Osservazioni e previsioni meteorologiche di più di 4000 aeroporti (messaggi METAR e TAF).

Le stazioni disponibili sono rappresentate dai dischi gialli e rossi sulla carta.

Puntare il mouse per vedere il nome della stazione.

Clicca sopra per visualizzare le osservazioni e previsioni meteorologiche.

Per cambiare la mappa : fare clic sui pulsanti verdi con una croce nera per ingrandire, il pulsante verde con un trattino per diminuire, o sulla freccia verde per le mappe adiacenti.


METAR-TAF: